Stephenville, Texas
Current Conditions -  °F | °C
As of 7:35 PM on Wednesday 22 Oct 2014 (Local Time) from KSEP Reporting Station
Clear Clear  
Wind Chill: 22°   Ceiling: Unl
Heat Index: 22°   Visibility: 10mi
Dew Point: 15°   Wind: 5mph
Humidity: 64%   Direction: 100°E
Pressure: 30.12"   Gusts: NA
Location:  32.22°N, 98.2°W
Report Text: KSEP 230035Z AUTO 10004KT 10SM CLR 22/15 A3012 RMK AO2 T02160145
Loading
Personal Weather Stations






























Interactive Weather Map
Tropical Storm Tracking
New forecast layout! Learn more

10-Day Weather Forecast

Advertisements
Track Severe Weather on mobile